Impacts TAF Board INFO
FOR SITUATIONAL AWARENESS. NOT TO BE USED FOR FLIGHT PLANNING PURPOSES.
IDs:

PASC - Deadhorse Arpt, AK, US

Issued at 1120 UTC 15 Aug 2018
Updated at 1330 UTC 15 Aug 2018
Potential Impact None Slight Moderate High
Time1253Z 15/14Z 15/15Z 15/16Z 15/17Z 15/18Z 15/19Z 15/20Z 15/21Z 15/22Z 15/23Z 16/00Z 16/01Z 16/02Z>>
Type OBS PRVL PRVL PRVL PRVL PRVL PRVL PRVL PRVL PRVL PRVL PRVL PRVL PRVL
VIS 10 >6 >6 >6 >6 >6 >6 >6 3 3 3 1.5 1.5 1.5
CIG 150 250 250 250 250 250 250 250 25 25 25 25 25 25
Cover BKN BKN BKN BKN BKN BKN BKN BKN OVC OVC OVC OVC OVC OVC
FltCat VFR VFR VFR VFR VFR VFR VFR VFR MVFR MVFR MVFR IFR IFR IFR
WX -- -- -- -- -- -- -- -- -RA BR -RA BR -RA BR -RA BR -RA BR -RA BR
WDir 220 230 230 230 230 230 230 230 240 240 240 240 240 240
WSpd 12 17 17 17 17 17 17 17 21 21 21 26 26 26
WGst -- -- -- -- -- -- -- -- 31 31 31 36 36 36

Raw TAF
PASC 151120Z 1512/1612 22012KT P6SM SCT110 SCT170 BKN200
  FM151400 23017KT P6SM SCT015 BKN250
  FM152100 24021G31KT 3SM -RA BR BKN025 OVC070
  FM160000 24026G36KT 1 1/2SM -RA BR BKN025 OVC050
  FM160300 24026G36KT 4SM -RA BR SCT025 OVC050


Raw METAR
PASC 151253Z 22012KT 10SM SCT110 BKN150 BKN200 02/00 A2975 RMK AO2 SLP075 T00220000
PASC 151153Z 22012KT 10SM SCT120 BKN150 BKN200 02/00 A2978 RMK AO2 SLP085 T00220000 10056 20022 58016
PASC 151053Z 22012KT 10SM SCT110 SCT170 BKN200 02/00 A2980 RMK AO2 SLP091 T00220000

METAR Board
Radar Display
Forecast Discussion

FOR SITUATIONAL AWARENESS. NOT TO BE USED FOR FLIGHT PLANNING PURPOSES.